sensor_id;sensor_type;location;lat;lon;timestamp;P1;durP1;ratioP1;P2;durP2;ratioP2
3189;SDS011;1606;51.946;10.558;2023-03-03T00:01:57;17.43;;;9.30;;
3189;SDS011;1606;51.946;10.558;2023-03-03T00:04:24;16.30;;;7.83;;
3189;SDS011;1606;51.946;10.558;2023-03-03T00:06:52;19.07;;;10.03;;
3189;SDS011;1606;51.946;10.558;2023-03-03T00:09:20;22.07;;;10.90;;
3189;SDS011;1606;51.946;10.558;2023-03-03T00:11:49;20.27;;;10.20;;
3189;SDS011;1606;51.946;10.558;2023-03-03T00:14:23;18.77;;;10.03;;
3189;SDS011;1606;51.946;10.558;2023-03-03T00:16:54;24.57;;;10.93;;
3189;SDS011;1606;51.946;10.558;2023-03-03T00:19:23;18.80;;;10.77;;
3189;SDS011;1606;51.946;10.558;2023-03-03T00:21:51;23.60;;;11.13;;
3189;SDS011;1606;51.946;10.558;2023-03-03T00:24:21;21.70;;;10.83;;
3189;SDS011;1606;51.946;10.558;2023-03-03T00:26:50;21.30;;;11.07;;
3189;SDS011;1606;51.946;10.558;2023-03-03T00:29:27;19.73;;;9.90;;
3189;SDS011;1606;51.946;10.558;2023-03-03T00:34:46;19.80;;;10.20;;
3189;SDS011;1606;51.946;10.558;2023-03-03T00:37:19;18.73;;;9.87;;
3189;SDS011;1606;51.946;10.558;2023-03-03T00:39:53;20.77;;;9.83;;
3189;SDS011;1606;51.946;10.558;2023-03-03T00:42:27;15.70;;;8.03;;
3189;SDS011;1606;51.946;10.558;2023-03-03T00:44:57;18.47;;;8.87;;
3189;SDS011;1606;51.946;10.558;2023-03-03T00:47:29;22.37;;;10.13;;
3189;SDS011;1606;51.946;10.558;2023-03-03T00:52:50;20.58;;;11.63;;
3189;SDS011;1606;51.946;10.558;2023-03-03T00:55:25;22.03;;;13.13;;
3189;SDS011;1606;51.946;10.558;2023-03-03T00:57:53;23.27;;;10.50;;
3189;SDS011;1606;51.946;10.558;2023-03-03T01:00:22;17.87;;;9.83;;
3189;SDS011;1606;51.946;10.558;2023-03-03T01:02:50;19.33;;;8.90;;
3189;SDS011;1606;51.946;10.558;2023-03-03T01:05:18;18.17;;;9.13;;
3189;SDS011;1606;51.946;10.558;2023-03-03T01:07:47;20.73;;;9.70;;
3189;SDS011;1606;51.946;10.558;2023-03-03T01:10:14;22.63;;;11.03;;
3189;SDS011;1606;51.946;10.558;2023-03-03T01:12:42;17.90;;;9.23;;
3189;SDS011;1606;51.946;10.558;2023-03-03T01:15:11;24.17;;;10.60;;
3189;SDS011;1606;51.946;10.558;2023-03-03T01:17:41;20.20;;;9.67;;
3189;SDS011;1606;51.946;10.558;2023-03-03T01:20:10;19.17;;;9.73;;
3189;SDS011;1606;51.946;10.558;2023-03-03T01:22:40;16.90;;;9.00;;
3189;SDS011;1606;51.946;10.558;2023-03-03T01:25:08;19.60;;;9.40;;
3189;SDS011;1606;51.946;10.558;2023-03-03T01:27:37;19.63;;;10.07;;
3189;SDS011;1606;51.946;10.558;2023-03-03T01:30:05;17.77;;;10.40;;
3189;SDS011;1606;51.946;10.558;2023-03-03T01:32:35;19.53;;;9.50;;
3189;SDS011;1606;51.946;10.558;2023-03-03T01:35:05;19.20;;;9.37;;
3189;SDS011;1606;51.946;10.558;2023-03-03T01:37:33;19.03;;;9.60;;
3189;SDS011;1606;51.946;10.558;2023-03-03T01:40:01;15.70;;;8.30;;
3189;SDS011;1606;51.946;10.558;2023-03-03T01:42:29;18.50;;;9.47;;
3189;SDS011;1606;51.946;10.558;2023-03-03T01:45:11;20.77;;;9.33;;
3189;SDS011;1606;51.946;10.558;2023-03-03T01:47:42;26.20;;;10.20;;
3189;SDS011;1606;51.946;10.558;2023-03-03T01:50:16;19.63;;;11.20;;
3189;SDS011;1606;51.946;10.558;2023-03-03T01:52:52;21.13;;;9.33;;
3189;SDS011;1606;51.946;10.558;2023-03-03T01:55:22;21.63;;;10.80;;
3189;SDS011;1606;51.946;10.558;2023-03-03T01:57:57;25.70;;;11.10;;
3189;SDS011;1606;51.946;10.558;2023-03-03T02:00:28;26.97;;;11.37;;
3189;SDS011;1606;51.946;10.558;2023-03-03T02:02:57;21.93;;;12.10;;
3189;SDS011;1606;51.946;10.558;2023-03-03T02:05:27;24.10;;;10.27;;
3189;SDS011;1606;51.946;10.558;2023-03-03T02:07:55;24.80;;;11.43;;
3189;SDS011;1606;51.946;10.558;2023-03-03T02:10:23;20.97;;;10.37;;
3189;SDS011;1606;51.946;10.558;2023-03-03T02:12:52;19.43;;;10.03;;
3189;SDS011;1606;51.946;10.558;2023-03-03T02:15:25;23.83;;;11.10;;
3189;SDS011;1606;51.946;10.558;2023-03-03T02:17:58;25.03;;;10.83;;
3189;SDS011;1606;51.946;10.558;2023-03-03T02:20:32;23.37;;;10.70;;
3189;SDS011;1606;51.946;10.558;2023-03-03T02:23:10;20.53;;;10.20;;
3189;SDS011;1606;51.946;10.558;2023-03-03T02:25:46;27.83;;;10.53;;
3189;SDS011;1606;51.946;10.558;2023-03-03T02:28:19;22.57;;;11.53;;
3189;SDS011;1606;51.946;10.558;2023-03-03T02:30:48;26.30;;;11.10;;
3189;SDS011;1606;51.946;10.558;2023-03-03T02:33:16;24.10;;;11.27;;
3189;SDS011;1606;51.946;10.558;2023-03-03T02:35:44;25.03;;;12.80;;
3189;SDS011;1606;51.946;10.558;2023-03-03T02:38:14;26.03;;;13.00;;
3189;SDS011;1606;51.946;10.558;2023-03-03T02:40:50;21.00;;;10.93;;
3189;SDS011;1606;51.946;10.558;2023-03-03T02:43:31;23.23;;;11.17;;
3189;SDS011;1606;51.946;10.558;2023-03-03T02:46:05;26.20;;;11.93;;
3189;SDS011;1606;51.946;10.558;2023-03-03T02:48:33;26.13;;;12.67;;
3189;SDS011;1606;51.946;10.558;2023-03-03T02:51:01;24.03;;;11.20;;
3189;SDS011;1606;51.946;10.558;2023-03-03T02:53:28;26.77;;;12.97;;
3189;SDS011;1606;51.946;10.558;2023-03-03T02:55:56;25.60;;;13.03;;
3189;SDS011;1606;51.946;10.558;2023-03-03T02:58:24;25.63;;;12.73;;
3189;SDS011;1606;51.946;10.558;2023-03-03T03:00:53;30.07;;;13.20;;
3189;SDS011;1606;51.946;10.558;2023-03-03T03:03:21;34.73;;;16.20;;
3189;SDS011;1606;51.946;10.558;2023-03-03T03:05:49;32.17;;;15.90;;
3189;SDS011;1606;51.946;10.558;2023-03-03T03:08:17;32.70;;;15.27;;
3189;SDS011;1606;51.946;10.558;2023-03-03T03:10:44;33.70;;;14.63;;
3189;SDS011;1606;51.946;10.558;2023-03-03T03:13:12;34.10;;;14.20;;
3189;SDS011;1606;51.946;10.558;2023-03-03T03:15:40;35.57;;;14.23;;
3189;SDS011;1606;51.946;10.558;2023-03-03T03:18:09;34.07;;;13.43;;
3189;SDS011;1606;51.946;10.558;2023-03-03T03:20:37;32.37;;;14.00;;
3189;SDS011;1606;51.946;10.558;2023-03-03T03:23:06;34.17;;;14.03;;
3189;SDS011;1606;51.946;10.558;2023-03-03T03:25:34;32.00;;;13.33;;
3189;SDS011;1606;51.946;10.558;2023-03-03T03:28:07;32.87;;;13.40;;
3189;SDS011;1606;51.946;10.558;2023-03-03T03:30:35;32.90;;;14.13;;
3189;SDS011;1606;51.946;10.558;2023-03-03T03:33:03;25.40;;;11.87;;
3189;SDS011;1606;51.946;10.558;2023-03-03T03:35:33;33.70;;;13.43;;
3189;SDS011;1606;51.946;10.558;2023-03-03T03:38:02;28.10;;;12.33;;
3189;SDS011;1606;51.946;10.558;2023-03-03T03:40:30;25.30;;;11.70;;
3189;SDS011;1606;51.946;10.558;2023-03-03T03:42:57;29.60;;;12.80;;
3189;SDS011;1606;51.946;10.558;2023-03-03T03:45:25;27.47;;;10.63;;
3189;SDS011;1606;51.946;10.558;2023-03-03T03:47:53;28.13;;;13.40;;
3189;SDS011;1606;51.946;10.558;2023-03-03T03:50:21;33.20;;;13.90;;
3189;SDS011;1606;51.946;10.558;2023-03-03T03:52:50;30.63;;;12.77;;
3189;SDS011;1606;51.946;10.558;2023-03-03T03:55:17;36.57;;;14.53;;
3189;SDS011;1606;51.946;10.558;2023-03-03T03:57:45;44.23;;;14.43;;
3189;SDS011;1606;51.946;10.558;2023-03-03T04:00:13;29.90;;;12.63;;
3189;SDS011;1606;51.946;10.558;2023-03-03T04:02:41;34.07;;;14.60;;
3189;SDS011;1606;51.946;10.558;2023-03-03T04:05:09;33.37;;;13.00;;
3189;SDS011;1606;51.946;10.558;2023-03-03T04:07:37;36.47;;;13.60;;
3189;SDS011;1606;51.946;10.558;2023-03-03T04:10:07;35.17;;;11.83;;
3189;SDS011;1606;51.946;10.558;2023-03-03T04:12:35;37.40;;;13.67;;
3189;SDS011;1606;51.946;10.558;2023-03-03T04:15:04;36.20;;;14.47;;
3189;SDS011;1606;51.946;10.558;2023-03-03T04:17:34;29.40;;;13.47;;
3189;SDS011;1606;51.946;10.558;2023-03-03T04:20:02;31.07;;;13.93;;
3189;SDS011;1606;51.946;10.558;2023-03-03T04:22:31;32.07;;;12.20;;
3189;SDS011;1606;51.946;10.558;2023-03-03T04:25:01;36.33;;;16.00;;
3189;SDS011;1606;51.946;10.558;2023-03-03T04:27:31;36.20;;;15.23;;
3189;SDS011;1606;51.946;10.558;2023-03-03T04:30:00;33.03;;;13.53;;
3189;SDS011;1606;51.946;10.558;2023-03-03T04:32:28;31.67;;;11.90;;
3189;SDS011;1606;51.946;10.558;2023-03-03T04:34:56;32.87;;;14.20;;
3189;SDS011;1606;51.946;10.558;2023-03-03T04:37:33;30.80;;;12.50;;
3189;SDS011;1606;51.946;10.558;2023-03-03T04:40:03;24.80;;;11.00;;
3189;SDS011;1606;51.946;10.558;2023-03-03T04:42:33;39.33;;;12.23;;
3189;SDS011;1606;51.946;10.558;2023-03-03T04:45:01;36.00;;;15.43;;
3189;SDS011;1606;51.946;10.558;2023-03-03T04:47:30;34.37;;;12.43;;
3189;SDS011;1606;51.946;10.558;2023-03-03T04:49:58;35.47;;;12.47;;
3189;SDS011;1606;51.946;10.558;2023-03-03T04:52:26;39.73;;;17.97;;
3189;SDS011;1606;51.946;10.558;2023-03-03T04:54:54;35.63;;;14.13;;
3189;SDS011;1606;51.946;10.558;2023-03-03T04:57:22;41.70;;;17.10;;
3189;SDS011;1606;51.946;10.558;2023-03-03T04:59:51;39.37;;;17.10;;
3189;SDS011;1606;51.946;10.558;2023-03-03T05:02:19;34.53;;;13.73;;
3189;SDS011;1606;51.946;10.558;2023-03-03T05:04:47;38.03;;;16.90;;
3189;SDS011;1606;51.946;10.558;2023-03-03T05:07:15;37.33;;;15.10;;
3189;SDS011;1606;51.946;10.558;2023-03-03T05:09:44;41.13;;;16.23;;
3189;SDS011;1606;51.946;10.558;2023-03-03T05:12:12;42.23;;;16.47;;
3189;SDS011;1606;51.946;10.558;2023-03-03T05:14:39;42.10;;;17.60;;
3189;SDS011;1606;51.946;10.558;2023-03-03T05:17:09;37.70;;;17.83;;
3189;SDS011;1606;51.946;10.558;2023-03-03T05:19:36;42.23;;;17.17;;
3189;SDS011;1606;51.946;10.558;2023-03-03T05:22:04;41.63;;;17.83;;
3189;SDS011;1606;51.946;10.558;2023-03-03T05:24:32;42.20;;;15.93;;
3189;SDS011;1606;51.946;10.558;2023-03-03T05:27:00;43.00;;;16.40;;
3189;SDS011;1606;51.946;10.558;2023-03-03T05:29:28;38.33;;;14.87;;
3189;SDS011;1606;51.946;10.558;2023-03-03T05:31:56;37.97;;;14.50;;
3189;SDS011;1606;51.946;10.558;2023-03-03T05:34:26;34.00;;;14.50;;
3189;SDS011;1606;51.946;10.558;2023-03-03T05:36:53;34.50;;;14.03;;
3189;SDS011;1606;51.946;10.558;2023-03-03T05:39:21;32.13;;;12.20;;
3189;SDS011;1606;51.946;10.558;2023-03-03T05:41:49;41.30;;;15.70;;
3189;SDS011;1606;51.946;10.558;2023-03-03T05:44:17;44.10;;;16.87;;
3189;SDS011;1606;51.946;10.558;2023-03-03T05:46:45;33.67;;;14.80;;
3189;SDS011;1606;51.946;10.558;2023-03-03T05:49:13;40.87;;;15.30;;
3189;SDS011;1606;51.946;10.558;2023-03-03T05:51:42;40.57;;;14.37;;
3189;SDS011;1606;51.946;10.558;2023-03-03T05:54:10;38.90;;;14.50;;
3189;SDS011;1606;51.946;10.558;2023-03-03T05:56:38;37.67;;;13.70;;
3189;SDS011;1606;51.946;10.558;2023-03-03T05:59:06;33.43;;;14.70;;
3189;SDS011;1606;51.946;10.558;2023-03-03T06:01:33;33.27;;;13.33;;
3189;SDS011;1606;51.946;10.558;2023-03-03T06:04:01;32.27;;;14.07;;
3189;SDS011;1606;51.946;10.558;2023-03-03T06:06:29;29.80;;;12.90;;
3189;SDS011;1606;51.946;10.558;2023-03-03T06:08:58;31.43;;;12.83;;
3189;SDS011;1606;51.946;10.558;2023-03-03T06:11:26;28.30;;;10.60;;
3189;SDS011;1606;51.946;10.558;2023-03-03T06:13:54;34.28;;;15.65;;
3189;SDS011;1606;51.946;10.558;2023-03-03T06:16:22;29.43;;;12.87;;
3189;SDS011;1606;51.946;10.558;2023-03-03T06:18:50;29.27;;;13.00;;
3189;SDS011;1606;51.946;10.558;2023-03-03T06:21:17;35.40;;;12.13;;
3189;SDS011;1606;51.946;10.558;2023-03-03T06:23:45;27.67;;;11.67;;
3189;SDS011;1606;51.946;10.558;2023-03-03T06:26:14;30.10;;;12.70;;
3189;SDS011;1606;51.946;10.558;2023-03-03T06:28:42;31.97;;;14.63;;
3189;SDS011;1606;51.946;10.558;2023-03-03T06:31:10;22.03;;;10.70;;
3189;SDS011;1606;51.946;10.558;2023-03-03T06:33:37;21.33;;;9.60;;
3189;SDS011;1606;51.946;10.558;2023-03-03T06:36:07;21.87;;;9.40;;
3189;SDS011;1606;51.946;10.558;2023-03-03T06:38:36;23.97;;;9.60;;
3189;SDS011;1606;51.946;10.558;2023-03-03T06:41:04;24.00;;;10.07;;
3189;SDS011;1606;51.946;10.558;2023-03-03T06:43:33;19.87;;;8.63;;
3189;SDS011;1606;51.946;10.558;2023-03-03T06:46:02;20.73;;;8.80;;
3189;SDS011;1606;51.946;10.558;2023-03-03T06:48:30;20.27;;;8.80;;
3189;SDS011;1606;51.946;10.558;2023-03-03T06:50:59;20.00;;;8.80;;
3189;SDS011;1606;51.946;10.558;2023-03-03T06:53:29;18.90;;;7.27;;
3189;SDS011;1606;51.946;10.558;2023-03-03T06:56:00;19.70;;;8.03;;
3189;SDS011;1606;51.946;10.558;2023-03-03T06:58:28;19.47;;;8.80;;
3189;SDS011;1606;51.946;10.558;2023-03-03T07:00:58;19.33;;;8.03;;
3189;SDS011;1606;51.946;10.558;2023-03-03T07:03:27;19.50;;;9.03;;
3189;SDS011;1606;51.946;10.558;2023-03-03T07:06:00;18.03;;;8.07;;
3189;SDS011;1606;51.946;10.558;2023-03-03T07:08:31;19.77;;;8.17;;
3189;SDS011;1606;51.946;10.558;2023-03-03T07:11:00;19.70;;;8.90;;
3189;SDS011;1606;51.946;10.558;2023-03-03T07:13:34;20.00;;;9.10;;
3189;SDS011;1606;51.946;10.558;2023-03-03T07:16:10;19.97;;;8.80;;
3189;SDS011;1606;51.946;10.558;2023-03-03T07:18:42;19.07;;;9.10;;
3189;SDS011;1606;51.946;10.558;2023-03-03T07:21:17;23.80;;;9.10;;
3189;SDS011;1606;51.946;10.558;2023-03-03T07:23:47;22.60;;;9.33;;
3189;SDS011;1606;51.946;10.558;2023-03-03T07:26:16;26.30;;;10.80;;
3189;SDS011;1606;51.946;10.558;2023-03-03T07:28:47;23.43;;;10.00;;
3189;SDS011;1606;51.946;10.558;2023-03-03T07:31:28;27.17;;;13.13;;
3189;SDS011;1606;51.946;10.558;2023-03-03T07:34:01;25.80;;;9.57;;
3189;SDS011;1606;51.946;10.558;2023-03-03T07:36:41;25.80;;;9.87;;
3189;SDS011;1606;51.946;10.558;2023-03-03T07:39:18;22.87;;;11.50;;
3189;SDS011;1606;51.946;10.558;2023-03-03T07:41:53;23.60;;;10.57;;
3189;SDS011;1606;51.946;10.558;2023-03-03T07:44:27;24.23;;;11.23;;
3189;SDS011;1606;51.946;10.558;2023-03-03T07:47:02;21.03;;;8.90;;
3189;SDS011;1606;51.946;10.558;2023-03-03T07:49:43;30.80;;;11.40;;
3189;SDS011;1606;51.946;10.558;2023-03-03T07:52:25;25.10;;;11.43;;
3189;SDS011;1606;51.946;10.558;2023-03-03T07:54:55;24.67;;;10.33;;
3189;SDS011;1606;51.946;10.558;2023-03-03T07:57:24;25.87;;;11.50;;
3189;SDS011;1606;51.946;10.558;2023-03-03T07:59:54;32.97;;;12.83;;
3189;SDS011;1606;51.946;10.558;2023-03-03T08:02:39;37.77;;;15.47;;
3189;SDS011;1606;51.946;10.558;2023-03-03T08:05:20;39.70;;;14.97;;
3189;SDS011;1606;51.946;10.558;2023-03-03T08:07:56;34.50;;;14.40;;
3189;SDS011;1606;51.946;10.558;2023-03-03T08:10:34;37.00;;;14.90;;
3189;SDS011;1606;51.946;10.558;2023-03-03T08:13:13;40.03;;;15.27;;
3189;SDS011;1606;51.946;10.558;2023-03-03T08:15:44;38.70;;;16.47;;
3189;SDS011;1606;51.946;10.558;2023-03-03T08:18:17;37.80;;;15.20;;
3189;SDS011;1606;51.946;10.558;2023-03-03T08:20:51;39.07;;;14.43;;
3189;SDS011;1606;51.946;10.558;2023-03-03T08:23:20;50.23;;;14.37;;
3189;SDS011;1606;51.946;10.558;2023-03-03T08:25:49;38.80;;;14.77;;
3189;SDS011;1606;51.946;10.558;2023-03-03T08:28:18;36.00;;;14.43;;
3189;SDS011;1606;51.946;10.558;2023-03-03T08:30:47;27.03;;;12.67;;
3189;SDS011;1606;51.946;10.558;2023-03-03T08:33:17;35.00;;;14.43;;
3189;SDS011;1606;51.946;10.558;2023-03-03T08:35:45;44.60;;;18.37;;
3189;SDS011;1606;51.946;10.558;2023-03-03T08:38:14;34.33;;;14.70;;
3189;SDS011;1606;51.946;10.558;2023-03-03T08:40:43;44.90;;;17.30;;
3189;SDS011;1606;51.946;10.558;2023-03-03T08:43:11;41.00;;;15.23;;
3189;SDS011;1606;51.946;10.558;2023-03-03T08:45:42;48.77;;;17.83;;
3189;SDS011;1606;51.946;10.558;2023-03-03T08:48:11;37.80;;;15.17;;
3189;SDS011;1606;51.946;10.558;2023-03-03T08:50:40;37.70;;;14.87;;
3189;SDS011;1606;51.946;10.558;2023-03-03T08:53:09;37.03;;;13.33;;
3189;SDS011;1606;51.946;10.558;2023-03-03T08:55:37;32.23;;;13.23;;
3189;SDS011;1606;51.946;10.558;2023-03-03T08:58:05;34.30;;;13.30;;
3189;SDS011;1606;51.946;10.558;2023-03-03T09:00:33;33.20;;;15.30;;
3189;SDS011;1606;51.946;10.558;2023-03-03T09:03:01;36.53;;;13.50;;
3189;SDS011;1606;51.946;10.558;2023-03-03T09:05:29;31.57;;;13.53;;
3189;SDS011;1606;51.946;10.558;2023-03-03T09:07:58;30.40;;;12.87;;
3189;SDS011;1606;51.946;10.558;2023-03-03T09:10:26;31.20;;;13.63;;
3189;SDS011;1606;51.946;10.558;2023-03-03T09:12:57;27.23;;;12.47;;
3189;SDS011;1606;51.946;10.558;2023-03-03T09:15:27;28.23;;;12.43;;
3189;SDS011;1606;51.946;10.558;2023-03-03T09:17:57;26.37;;;13.00;;
3189;SDS011;1606;51.946;10.558;2023-03-03T09:20:32;30.43;;;12.57;;
3189;SDS011;1606;51.946;10.558;2023-03-03T09:23:27;24.63;;;12.13;;
3189;SDS011;1606;51.946;10.558;2023-03-03T09:25:57;24.77;;;10.50;;
3189;SDS011;1606;51.946;10.558;2023-03-03T09:28:37;30.87;;;13.67;;
3189;SDS011;1606;51.946;10.558;2023-03-03T09:31:16;21.70;;;9.23;;
3189;SDS011;1606;51.946;10.558;2023-03-03T09:33:50;24.43;;;10.03;;
3189;SDS011;1606;51.946;10.558;2023-03-03T09:36:24;25.47;;;10.53;;
3189;SDS011;1606;51.946;10.558;2023-03-03T09:38:55;22.90;;;10.60;;
3189;SDS011;1606;51.946;10.558;2023-03-03T09:41:34;29.80;;;12.50;;
3189;SDS011;1606;51.946;10.558;2023-03-03T09:44:16;26.60;;;12.10;;
3189;SDS011;1606;51.946;10.558;2023-03-03T09:46:57;25.60;;;11.00;;
3189;SDS011;1606;51.946;10.558;2023-03-03T09:49:38;27.80;;;11.57;;
3189;SDS011;1606;51.946;10.558;2023-03-03T09:52:19;23.53;;;11.83;;
3189;SDS011;1606;51.946;10.558;2023-03-03T09:54:57;26.93;;;11.67;;
3189;SDS011;1606;51.946;10.558;2023-03-03T09:57:36;28.83;;;12.43;;
3189;SDS011;1606;51.946;10.558;2023-03-03T10:00:24;32.00;;;13.03;;
3189;SDS011;1606;51.946;10.558;2023-03-03T10:03:17;28.43;;;12.17;;
3189;SDS011;1606;51.946;10.558;2023-03-03T10:06:00;29.33;;;12.17;;
3189;SDS011;1606;51.946;10.558;2023-03-03T10:08:40;27.63;;;13.87;;
3189;SDS011;1606;51.946;10.558;2023-03-03T10:11:20;23.80;;;11.47;;
3189;SDS011;1606;51.946;10.558;2023-03-03T10:14:02;32.30;;;13.47;;
3189;SDS011;1606;51.946;10.558;2023-03-03T10:19:35;28.40;;;13.97;;
3189;SDS011;1606;51.946;10.558;2023-03-03T10:22:16;28.20;;;11.73;;
3189;SDS011;1606;51.946;10.558;2023-03-03T10:24:49;27.50;;;12.77;;
3189;SDS011;1606;51.946;10.558;2023-03-03T10:27:30;30.67;;;13.50;;
3189;SDS011;1606;51.946;10.558;2023-03-03T10:30:09;42.67;;;16.60;;
3189;SDS011;1606;51.946;10.558;2023-03-03T10:32:55;36.63;;;14.00;;
3189;SDS011;1606;51.946;10.558;2023-03-03T10:35:38;30.83;;;15.77;;
3189;SDS011;1606;51.946;10.558;2023-03-03T10:38:36;35.03;;;13.93;;
3189;SDS011;1606;51.946;10.558;2023-03-03T10:41:22;34.80;;;16.33;;
3189;SDS011;1606;51.946;10.558;2023-03-03T10:44:32;34.57;;;14.10;;
3189;SDS011;1606;51.946;10.558;2023-03-03T10:47:13;33.90;;;14.90;;
3189;SDS011;1606;51.946;10.558;2023-03-03T10:50:06;28.40;;;13.03;;
3189;SDS011;1606;51.946;10.558;2023-03-03T10:52:43;32.47;;;15.00;;
3189;SDS011;1606;51.946;10.558;2023-03-03T10:55:17;38.40;;;15.80;;
3189;SDS011;1606;51.946;10.558;2023-03-03T11:01:15;33.80;;;14.80;;
3189;SDS011;1606;51.946;10.558;2023-03-03T11:03:56;37.70;;;18.67;;
3189;SDS011;1606;51.946;10.558;2023-03-03T11:06:37;32.77;;;15.90;;
3189;SDS011;1606;51.946;10.558;2023-03-03T11:09:27;38.60;;;16.53;;
3189;SDS011;1606;51.946;10.558;2023-03-03T11:12:04;34.83;;;17.00;;
3189;SDS011;1606;51.946;10.558;2023-03-03T11:14:42;36.50;;;16.47;;
3189;SDS011;1606;51.946;10.558;2023-03-03T11:17:16;32.83;;;14.80;;
3189;SDS011;1606;51.946;10.558;2023-03-03T11:19:57;37.17;;;15.90;;
3189;SDS011;1606;51.946;10.558;2023-03-03T11:22:32;36.33;;;17.37;;
3189;SDS011;1606;51.946;10.558;2023-03-03T11:25:09;32.50;;;15.23;;
3189;SDS011;1606;51.946;10.558;2023-03-03T11:27:54;39.73;;;17.90;;
3189;SDS011;1606;51.946;10.558;2023-03-03T11:30:47;39.97;;;17.53;;
3189;SDS011;1606;51.946;10.558;2023-03-03T11:33:29;43.87;;;17.97;;
3189;SDS011;1606;51.946;10.558;2023-03-03T11:36:07;43.47;;;19.13;;
3189;SDS011;1606;51.946;10.558;2023-03-03T11:38:44;47.10;;;20.75;;
3189;SDS011;1606;51.946;10.558;2023-03-03T11:41:22;47.60;;;20.53;;
3189;SDS011;1606;51.946;10.558;2023-03-03T11:43:57;53.77;;;22.73;;
3189;SDS011;1606;51.946;10.558;2023-03-03T11:46:33;38.80;;;19.03;;
3189;SDS011;1606;51.946;10.558;2023-03-03T11:49:05;53.27;;;21.93;;
3189;SDS011;1606;51.946;10.558;2023-03-03T11:51:43;44.83;;;19.17;;
3189;SDS011;1606;51.946;10.558;2023-03-03T11:54:18;46.83;;;18.67;;
3189;SDS011;1606;51.946;10.558;2023-03-03T11:56:49;44.97;;;19.80;;
3189;SDS011;1606;51.946;10.558;2023-03-03T11:59:23;42.43;;;17.60;;
3189;SDS011;1606;51.946;10.558;2023-03-03T12:02:19;47.40;;;19.43;;
3189;SDS011;1606;51.946;10.558;2023-03-03T12:04:56;43.23;;;19.70;;
3189;SDS011;1606;51.946;10.558;2023-03-03T12:07:31;43.20;;;20.77;;
3189;SDS011;1606;51.946;10.558;2023-03-03T12:10:11;41.67;;;18.60;;
3189;SDS011;1606;51.946;10.558;2023-03-03T12:12:48;43.53;;;19.70;;
3189;SDS011;1606;51.946;10.558;2023-03-03T12:15:24;36.47;;;16.63;;
3189;SDS011;1606;51.946;10.558;2023-03-03T12:21:01;34.70;;;16.60;;
3189;SDS011;1606;51.946;10.558;2023-03-03T12:23:42;40.20;;;19.00;;
3189;SDS011;1606;51.946;10.558;2023-03-03T12:26:19;35.87;;;17.13;;
3189;SDS011;1606;51.946;10.558;2023-03-03T12:28:55;35.87;;;16.60;;
3189;SDS011;1606;51.946;10.558;2023-03-03T12:31:31;34.50;;;15.77;;
3189;SDS011;1606;51.946;10.558;2023-03-03T12:34:11;40.63;;;16.90;;
3189;SDS011;1606;51.946;10.558;2023-03-03T12:40:02;38.40;;;17.80;;
3189;SDS011;1606;51.946;10.558;2023-03-03T12:42:40;32.83;;;17.07;;
3189;SDS011;1606;51.946;10.558;2023-03-03T12:45:28;36.20;;;17.30;;
3189;SDS011;1606;51.946;10.558;2023-03-03T12:48:06;31.43;;;14.73;;
3189;SDS011;1606;51.946;10.558;2023-03-03T12:50:39;31.00;;;16.23;;
3189;SDS011;1606;51.946;10.558;2023-03-03T12:53:19;31.97;;;15.83;;
3189;SDS011;1606;51.946;10.558;2023-03-03T12:55:59;30.77;;;15.00;;
3189;SDS011;1606;51.946;10.558;2023-03-03T12:58:36;31.03;;;14.83;;
3189;SDS011;1606;51.946;10.558;2023-03-03T13:01:15;33.30;;;16.70;;
3189;SDS011;1606;51.946;10.558;2023-03-03T13:03:56;35.00;;;16.40;;
3189;SDS011;1606;51.946;10.558;2023-03-03T13:06:31;33.97;;;17.10;;
3189;SDS011;1606;51.946;10.558;2023-03-03T13:09:10;40.20;;;18.50;;
3189;SDS011;1606;51.946;10.558;2023-03-03T13:11:50;40.73;;;20.33;;
3189;SDS011;1606;51.946;10.558;2023-03-03T13:14:30;41.73;;;18.00;;
3189;SDS011;1606;51.946;10.558;2023-03-03T13:17:03;35.27;;;17.30;;
3189;SDS011;1606;51.946;10.558;2023-03-03T13:19:43;35.97;;;18.03;;
3189;SDS011;1606;51.946;10.558;2023-03-03T13:22:16;30.37;;;14.97;;
3189;SDS011;1606;51.946;10.558;2023-03-03T13:24:54;32.50;;;14.63;;
3189;SDS011;1606;51.946;10.558;2023-03-03T13:27:29;27.00;;;12.87;;
3189;SDS011;1606;51.946;10.558;2023-03-03T13:30:02;28.97;;;14.30;;
3189;SDS011;1606;51.946;10.558;2023-03-03T13:32:42;25.60;;;12.87;;
3189;SDS011;1606;51.946;10.558;2023-03-03T13:35:17;22.73;;;11.83;;
3189;SDS011;1606;51.946;10.558;2023-03-03T13:37:53;22.30;;;12.20;;
3189;SDS011;1606;51.946;10.558;2023-03-03T13:40:24;22.43;;;12.47;;
3189;SDS011;1606;51.946;10.558;2023-03-03T13:42:56;21.60;;;10.00;;
3189;SDS011;1606;51.946;10.558;2023-03-03T13:45:29;24.63;;;11.40;;
3189;SDS011;1606;51.946;10.558;2023-03-03T13:48:09;23.20;;;10.73;;
3189;SDS011;1606;51.946;10.558;2023-03-03T13:50:49;19.33;;;10.10;;
3189;SDS011;1606;51.946;10.558;2023-03-03T13:53:27;19.83;;;8.60;;
3189;SDS011;1606;51.946;10.558;2023-03-03T13:56:04;16.63;;;8.33;;
3189;SDS011;1606;51.946;10.558;2023-03-03T13:58:47;21.00;;;9.47;;
3189;SDS011;1606;51.946;10.558;2023-03-03T14:01:22;25.33;;;10.20;;
3189;SDS011;1606;51.946;10.558;2023-03-03T14:06:50;19.67;;;10.27;;
3189;SDS011;1606;51.946;10.558;2023-03-03T14:09:30;18.93;;;8.13;;
3189;SDS011;1606;51.946;10.558;2023-03-03T14:12:13;19.97;;;8.77;;
3189;SDS011;1606;51.946;10.558;2023-03-03T14:14:56;18.10;;;7.77;;
3189;SDS011;1606;51.946;10.558;2023-03-03T14:17:31;22.57;;;8.47;;
3189;SDS011;1606;51.946;10.558;2023-03-03T14:20:11;22.20;;;8.93;;
3189;SDS011;1606;51.946;10.558;2023-03-03T14:22:45;18.30;;;9.50;;
3189;SDS011;1606;51.946;10.558;2023-03-03T14:25:17;19.40;;;8.50;;
3189;SDS011;1606;51.946;10.558;2023-03-03T14:30:39;18.60;;;8.97;;
3189;SDS011;1606;51.946;10.558;2023-03-03T14:33:17;19.70;;;10.13;;
3189;SDS011;1606;51.946;10.558;2023-03-03T14:36:03;21.43;;;9.97;;
3189;SDS011;1606;51.946;10.558;2023-03-03T14:38:36;24.50;;;10.10;;
3189;SDS011;1606;51.946;10.558;2023-03-03T14:41:33;17.83;;;8.63;;
3189;SDS011;1606;51.946;10.558;2023-03-03T14:49:47;15.80;;;7.53;;
3189;SDS011;1606;51.946;10.558;2023-03-03T14:52:21;16.47;;;8.10;;
3189;SDS011;1606;51.946;10.558;2023-03-03T14:54:52;19.90;;;8.10;;
3189;SDS011;1606;51.946;10.558;2023-03-03T14:57:22;17.33;;;8.43;;
3189;SDS011;1606;51.946;10.558;2023-03-03T15:00:27;21.07;;;8.30;;
3189;SDS011;1606;51.946;10.558;2023-03-03T15:03:04;19.43;;;9.40;;
3189;SDS011;1606;51.946;10.558;2023-03-03T15:05:47;18.77;;;8.13;;
3189;SDS011;1606;51.946;10.558;2023-03-03T15:08:21;15.70;;;8.07;;
3189;SDS011;1606;51.946;10.558;2023-03-03T15:10:53;25.23;;;9.43;;
3189;SDS011;1606;51.946;10.558;2023-03-03T15:13:28;16.53;;;8.87;;
3189;SDS011;1606;51.946;10.558;2023-03-03T15:16:00;21.90;;;8.43;;
3189;SDS011;1606;51.946;10.558;2023-03-03T15:21:41;16.23;;;8.17;;
3189;SDS011;1606;51.946;10.558;2023-03-03T15:24:20;17.47;;;8.27;;
3189;SDS011;1606;51.946;10.558;2023-03-03T15:26:56;20.67;;;8.90;;
3189;SDS011;1606;51.946;10.558;2023-03-03T15:29:28;18.40;;;8.60;;
3189;SDS011;1606;51.946;10.558;2023-03-03T15:32:03;16.60;;;8.73;;
3189;SDS011;1606;51.946;10.558;2023-03-03T15:34:39;20.30;;;9.90;;
3189;SDS011;1606;51.946;10.558;2023-03-03T15:37:19;18.30;;;8.57;;
3189;SDS011;1606;51.946;10.558;2023-03-03T15:40:08;18.50;;;8.63;;
3189;SDS011;1606;51.946;10.558;2023-03-03T15:42:45;21.77;;;8.33;;
3189;SDS011;1606;51.946;10.558;2023-03-03T15:45:17;16.97;;;8.00;;
3189;SDS011;1606;51.946;10.558;2023-03-03T15:48:00;18.50;;;9.00;;